Time;durP1;ratioP1;P1;durP2;ratioP2;P2;SDS_P1;SDS_P2;PMS_P1;PMS_P2;Temp;Humidity;BMP_temperature;BMP_pressure;BME280_temperature;BME280_humidity;BME280_pressure;Samples;Min_cycle;Max_cycle;Signal;HPM_P1;HPM_P2
2021/07/22 00:01:21;;;;;;;15.23;12.37;;;;;;;14.76;74.11;102348.31;3591787;40;20222;-79
2021/07/22 00:03:46;;;;;;;13.90;12.40;;;;;;;14.76;74.35;102344.84;3591319;40;20259;-79
2021/07/22 00:06:11;;;;;;;15.20;11.00;;;;;;;14.74;74.41;102351.69;3591797;40;20585;-78
2021/07/22 00:08:36;;;;;;;14.27;11.67;;;;;;;14.70;74.43;102345.56;3583002;40;20245;-78
2021/07/22 00:11:06;;;;;;;13.30;11.17;;;;;;;14.72;74.26;102348.16;3591788;40;20225;-78
2021/07/22 00:13:31;;;;;;;12.30;10.77;;;;;;;14.70;74.12;102345.56;3582283;40;20506;-78
2021/07/22 00:15:57;;;;;;;11.87;10.37;;;;;;;14.68;74.32;102343.78;3591965;40;20228;-79
2021/07/22 00:18:22;;;;;;;14.10;10.90;;;;;;;14.65;74.61;102354.84;3591639;40;20506;-78
2021/07/22 00:20:48;;;;;;;10.23;9.03;;;;;;;14.62;74.65;102349.66;3590987;40;20231;-78
2021/07/22 00:23:13;;;;;;;13.90;11.33;;;;;;;14.57;74.34;102348.66;3572739;40;20234;-78
2021/07/22 00:25:39;;;;;;;11.17;9.97;;;;;;;14.59;74.20;102348.69;3581301;40;20507;-78
2021/07/22 00:28:05;;;;;;;13.60;12.00;;;;;;;14.53;74.89;102354.53;3571748;40;20234;-78
2021/07/22 00:30:30;;;;;;;12.20;10.47;;;;;;;14.52;74.88;102357.97;3581193;40;20228;-78
2021/07/22 00:32:57;;;;;;;14.40;11.83;;;;;;;14.55;74.96;102354.59;3571942;40;20253;-78
2021/07/22 00:35:23;;;;;;;15.80;12.43;;;;;;;14.56;75.52;102352.06;3581729;40;20234;-78
2021/07/22 00:37:48;;;;;;;11.83;10.00;;;;;;;14.64;75.21;102358.28;3581673;40;20237;-78
2021/07/22 00:40:13;;;;;;;14.73;12.07;;;;;;;14.69;75.00;102353.25;3571586;40;20222;-78
2021/07/22 00:43:02;;;;;;;14.70;12.30;;;;;;;14.73;74.59;102345.63;3580986;40;20644;-77
2021/07/22 00:45:28;;;;;;;13.60;11.07;;;;;;;14.79;75.21;102352.66;3572149;40;20218;-78
2021/07/22 00:47:55;;;;;;;11.20;9.33;;;;;;;14.81;75.18;102346.72;3581431;40;20244;-78
2021/07/22 00:50:20;;;;;;;16.27;13.23;;;;;;;14.82;75.59;102345.03;3581613;40;20241;-78
2021/07/22 00:52:46;;;;;;;13.07;10.63;;;;;;;14.88;74.66;102340.00;3581080;40;20274;-78
2021/07/22 00:55:18;;;;;;;12.23;10.00;;;;;;;14.90;74.93;102338.34;3580835;40;20241;-78
2021/07/22 00:57:47;;;;;;;10.67;9.47;;;;;;;14.87;74.51;102343.44;3581326;40;20234;-78
2021/07/22 01:00:13;;;;;;;14.67;11.70;;;;;;;14.83;75.22;102344.19;3581087;40;20229;-78
2021/07/22 01:02:38;;;;;;;14.33;11.63;;;;;;;14.82;75.35;102343.28;3580861;40;20245;-78
2021/07/22 01:05:04;;;;;;;15.63;12.03;;;;;;;14.82;75.00;102335.56;3586244;40;20253;-78
2021/07/22 01:07:29;;;;;;;11.23;8.87;;;;;;;14.84;74.92;102339.06;3575662;40;20230;-78
2021/07/22 01:09:54;;;;;;;9.87;8.20;;;;;;;14.90;74.74;102330.59;3589233;40;20229;-78
2021/07/22 01:12:19;;;;;;;12.27;9.90;;;;;;;14.86;75.13;102336.50;3591183;40;20228;-78
2021/07/22 01:14:46;;;;;;;11.33;10.07;;;;;;;14.85;75.54;102335.66;3591107;40;20225;-78
2021/07/22 01:17:26;;;;;;;11.87;10.67;;;;;;;14.83;75.74;102331.28;3583320;40;20841;-78
2021/07/22 01:19:51;;;;;;;10.23;8.13;;;;;;;14.85;75.29;102325.34;3590090;40;20325;-78
2021/07/22 01:22:17;;;;;;;15.27;11.83;;;;;;;14.84;75.33;102333.03;3591297;40;20237;-77
2021/07/22 01:24:42;;;;;;;11.27;9.97;;;;;;;14.83;75.10;102339.03;3590534;40;20236;-77
2021/07/22 01:27:07;;;;;;;13.03;10.50;;;;;;;14.83;75.87;102339.03;3581456;40;20604;-77
2021/07/22 01:29:32;;;;;;;12.03;10.07;;;;;;;14.82;75.21;102338.13;3591333;40;20233;-77
2021/07/22 01:32:05;;;;;;;13.00;9.83;;;;;;;14.83;75.50;102337.31;3581533;40;20554;-78
2021/07/22 01:34:30;;;;;;;14.43;10.50;;;;;;;14.80;75.00;102326.94;3580465;40;20317;-79
2021/07/22 01:36:56;;;;;;;14.07;11.40;;;;;;;14.79;75.06;102329.47;3571672;40;20245;-77
2021/07/22 01:39:21;;;;;;;11.60;9.70;;;;;;;14.79;75.38;102329.47;3580361;40;20237;-78
2021/07/22 01:41:46;;;;;;;14.70;10.60;;;;;;;14.78;75.69;102332.88;3580674;40;20237;-77
2021/07/22 01:44:11;;;;;;;11.27;9.33;;;;;;;14.77;75.36;102329.41;3580650;40;20258;-78
2021/07/22 01:46:37;;;;;;;11.40;9.50;;;;;;;14.77;75.34;102333.69;3574781;40;20591;-78
2021/07/22 01:49:02;;;;;;;10.13;9.10;;;;;;;14.76;75.60;102334.53;3593081;40;20223;-77
2021/07/22 01:51:27;;;;;;;12.87;10.43;;;;;;;14.71;75.31;102321.53;3589619;40;20225;-77
2021/07/22 01:53:53;;;;;;;9.77;8.77;;;;;;;14.69;75.63;102327.47;3587082;40;20229;-78
2021/07/22 01:56:18;;;;;;;10.67;9.53;;;;;;;14.67;75.74;102323.97;3587965;40;20221;-78
2021/07/22 01:58:43;;;;;;;12.83;10.53;;;;;;;14.65;75.54;102329.06;3590275;40;20237;-78
2021/07/22 02:01:08;;;;;;;13.23;11.23;;;;;;;14.62;75.75;102321.28;3580655;40;20236;-77
2021/07/22 02:03:34;;;;;;;11.50;10.30;;;;;;;14.58;75.63;102319.44;3589746;40;20253;-77
2021/07/22 02:06:06;;;;;;;12.73;10.83;;;;;;;14.54;75.39;102329.66;3587459;40;20228;-77
2021/07/22 02:08:31;;;;;;;10.90;9.43;;;;;;;14.49;75.81;102331.19;3570490;40;20242;-77
2021/07/22 02:10:56;;;;;;;11.50;10.23;;;;;;;14.42;75.67;102326.72;3580001;40;20229;-78
2021/07/22 02:13:22;;;;;;;10.87;9.10;;;;;;;14.36;75.28;102326.56;3580010;40;20233;-77
2021/07/22 02:15:47;;;;;;;12.83;10.03;;;;;;;14.29;75.85;102327.22;3570322;40;20218;-77
2021/07/22 02:18:12;;;;;;;8.37;7.30;;;;;;;14.26;75.53;102324.53;3582188;40;20255;-77
2021/07/22 02:20:37;;;;;;;12.23;10.43;;;;;;;14.21;75.58;102332.16;3580917;40;20226;-77
2021/07/22 02:23:03;;;;;;;10.00;8.80;;;;;;;14.19;75.68;102322.59;3579840;40;20274;-79
2021/07/22 02:25:28;;;;;;;11.33;9.60;;;;;;;14.18;75.15;102323.44;3571323;40;20236;-78
2021/07/22 02:27:53;;;;;;;10.93;9.33;;;;;;;14.15;75.86;102326.81;3585383;40;20232;-79
2021/07/22 02:30:18;;;;;;;10.10;8.37;;;;;;;14.16;75.53;102325.97;3586302;40;20236;-78
2021/07/22 02:32:44;;;;;;;11.50;9.97;;;;;;;14.17;75.67;102334.53;3573526;40;20536;-78
2021/07/22 02:35:09;;;;;;;8.07;7.10;;;;;;;14.18;75.51;102339.75;3572986;40;20222;-78
2021/07/22 02:37:34;;;;;;;8.63;7.33;;;;;;;14.23;75.67;102334.78;3581864;40;20234;-78
2021/07/22 02:40:00;;;;;;;11.07;8.00;;;;;;;14.26;75.95;102340.88;3572505;40;20354;-78
2021/07/22 02:42:25;;;;;;;8.67;7.67;;;;;;;14.30;75.77;102337.56;3572006;40;20252;-78
2021/07/22 02:44:50;;;;;;;10.57;8.80;;;;;;;14.30;76.27;102324.69;3581824;40;20217;-78
2021/07/22 02:47:15;;;;;;;9.93;8.33;;;;;;;14.31;76.12;102329.00;3581432;40;20229;-79
2021/07/22 02:49:41;;;;;;;8.87;7.43;;;;;;;14.44;76.06;102328.50;3577486;40;20236;-78
2021/07/22 02:52:07;;;;;;;13.00;9.83;;;;;;;14.38;76.24;102330.94;3589472;40;20666;-78
2021/07/22 02:54:33;;;;;;;11.50;10.10;;;;;;;14.34;76.43;102330.78;3591681;40;20245;-78
2021/07/22 02:56:58;;;;;;;14.80;10.00;;;;;;;14.31;76.29;102325.56;3591084;40;20314;-77
2021/07/22 02:59:23;;;;;;;12.43;9.93;;;;;;;14.28;76.23;102326.31;3590927;40;20224;-78
2021/07/22 03:01:49;;;;;;;11.80;10.20;;;;;;;14.23;76.42;102330.47;3590700;40;20308;-78
2021/07/22 03:04:14;;;;;;;11.83;10.53;;;;;;;14.16;76.10;102328.53;3589929;40;20248;-77
2021/07/22 03:06:42;;;;;;;14.20;10.90;;;;;;;14.11;75.98;102327.53;3572097;40;20241;-77
2021/07/22 03:09:07;;;;;;;16.17;12.13;;;;;;;14.22;75.80;102327.88;3584988;40;20234;-78
2021/07/22 03:11:32;;;;;;;16.87;13.37;;;;;;;14.18;76.59;102328.59;3581223;40;20477;-78
2021/07/22 03:13:58;;;;;;;16.63;14.67;;;;;;;14.16;76.41;102327.66;3573977;40;20284;-77
2021/07/22 03:16:24;;;;;;;18.80;14.03;;;;;;;14.16;76.65;102325.97;3580697;40;20222;-78
2021/07/22 03:18:49;;;;;;;18.30;14.90;;;;;;;14.27;76.86;102326.31;3571856;40;20225;-77
2021/07/22 03:21:14;;;;;;;16.20;12.83;;;;;;;14.23;76.92;102321.91;3580757;40;20236;-77
2021/07/22 03:23:40;;;;;;;16.33;13.07;;;;;;;14.15;76.79;102333.63;3580667;40;20252;-78
2021/07/22 03:26:05;;;;;;;12.63;10.73;;;;;;;14.06;76.89;102336.84;3580881;40;20230;-78
2021/07/22 03:28:30;;;;;;;19.17;15.00;;;;;;;13.95;76.33;102333.06;3580975;40;20596;-78
2021/07/22 03:30:55;;;;;;;14.80;12.07;;;;;;;13.84;76.82;102337.03;3571959;40;20245;-78
2021/07/22 03:33:21;;;;;;;15.53;12.57;;;;;;;13.80;76.69;102336.88;3581395;40;20248;-78
2021/07/22 03:35:46;;;;;;;13.53;10.67;;;;;;;13.79;76.63;102341.16;3572415;40;20311;-78
2021/07/22 03:38:11;;;;;;;12.57;10.60;;;;;;;13.78;76.27;102349.72;3581136;40;20229;-78
2021/07/22 03:40:36;;;;;;;15.90;12.37;;;;;;;13.77;76.71;102347.09;3581051;40;20237;-79
2021/07/22 03:43:02;;;;;;;17.30;13.50;;;;;;;13.73;76.86;102335.84;3571969;40;20609;-78
2021/07/22 03:45:27;;;;;;;12.53;10.30;;;;;;;13.74;76.89;102340.16;3580990;40;20224;-78
2021/07/22 03:47:52;;;;;;;12.27;9.97;;;;;;;13.77;76.59;102336.81;3591513;40;20225;-78
2021/07/22 03:50:17;;;;;;;12.07;10.63;;;;;;;13.80;76.23;102334.28;3591340;40;20636;-78
2021/07/22 03:52:43;;;;;;;14.17;10.10;;;;;;;13.82;76.69;102342.97;3581764;40;20253;-78
2021/07/22 03:55:09;;;;;;;12.93;11.17;;;;;;;13.94;76.36;102344.19;3591339;40;20705;-78
2021/07/22 03:57:34;;;;;;;17.80;13.77;;;;;;;14.00;76.56;102348.66;3589572;40;20618;-78
2021/07/22 03:59:59;;;;;;;11.73;8.97;;;;;;;14.01;76.68;102342.66;3576302;40;20217;-80
2021/07/22 04:02:25;;;;;;;13.23;10.67;;;;;;;14.02;76.29;102350.44;3588657;40;20581;-78
2021/07/22 04:04:50;;;;;;;16.50;12.93;;;;;;;14.04;76.81;102342.78;3590927;40;20317;-78
2021/07/22 04:07:15;;;;;;;14.57;12.07;;;;;;;14.07;76.63;102348.00;3587268;40;20218;-78
2021/07/22 04:09:40;;;;;;;16.13;12.10;;;;;;;14.10;77.20;102336.09;3580542;40;20230;-78
2021/07/22 04:12:06;;;;;;;15.53;12.00;;;;;;;14.15;77.32;102341.38;3580828;40;20590;-78
2021/07/22 04:14:32;;;;;;;13.97;11.93;;;;;;;14.26;77.10;102340.88;3581425;40;20222;-78
2021/07/22 04:16:59;;;;;;;15.07;11.33;;;;;;;14.40;76.94;102343.84;3591117;40;20624;-77
2021/07/22 04:19:25;;;;;;;16.60;14.20;;;;;;;14.51;77.06;102339.88;3590633;40;20510;-78
2021/07/22 04:21:50;;;;;;;14.90;11.60;;;;;;;14.58;77.02;102339.19;3577075;40;20226;-79
2021/07/22 04:24:15;;;;;;;14.30;11.90;;;;;;;14.65;77.46;102346.28;3580704;40;20253;-78
2021/07/22 04:26:40;;;;;;;14.23;10.37;;;;;;;14.69;77.66;102332.63;3582194;40;20230;-78
2021/07/22 04:29:06;;;;;;;13.47;10.33;;;;;;;14.73;77.63;102335.31;3574837;40;20241;-78
2021/07/22 04:31:31;;;;;;;13.70;10.53;;;;;;;14.80;77.47;102334.66;3588337;40;20635;-78
2021/07/22 04:33:56;;;;;;;13.93;10.30;;;;;;;14.85;78.06;102335.66;3590959;40;20244;-78
2021/07/22 04:36:21;;;;;;;13.27;11.00;;;;;;;14.92;77.35;102337.53;3575992;40;20233;-80
2021/07/22 04:38:48;;;;;;;12.93;10.20;;;;;;;15.02;77.55;102333.50;3582981;40;20225;-77
2021/07/22 04:41:13;;;;;;;15.37;12.07;;;;;;;15.20;77.45;102332.22;3584125;40;20226;-78
2021/07/22 04:43:39;;;;;;;16.13;12.47;;;;;;;15.37;76.84;102323.22;3587227;40;20513;-79
2021/07/22 04:46:05;;;;;;;11.77;8.83;;;;;;;15.34;77.43;102330.03;3590896;40;20225;-78
2021/07/22 04:48:32;;;;;;;14.73;11.43;;;;;;;15.42;77.40;102325.94;3581213;40;20577;-79
2021/07/22 04:50:58;;;;;;;12.73;9.63;;;;;;;15.43;77.12;102325.94;3589161;40;20226;-79
2021/07/22 04:53:23;;;;;;;13.37;10.50;;;;;;;15.52;77.07;102317.56;3580664;40;20289;-78
2021/07/22 04:55:49;;;;;;;13.67;10.43;;;;;;;15.67;77.07;102323.94;3589273;40;20232;-79
2021/07/22 04:58:14;;;;;;;8.60;7.33;;;;;;;15.62;77.29;102322.97;3575995;40;20295;-78
2021/07/22 05:00:39;;;;;;;8.60;7.07;;;;;;;15.60;77.01;102329.81;3582380;40;20589;-79
2021/07/22 05:03:05;;;;;;;14.53;12.07;;;;;;;15.85;76.23;102331.22;3590377;40;20415;-79
2021/07/22 05:05:35;;;;;;;13.47;10.83;;;;;;;15.85;76.19;102324.38;3573752;40;20244;-79
2021/07/22 05:08:00;;;;;;;9.80;8.35;;;;;;;15.87;76.05;102333.00;3588161;40;20221;-78
2021/07/22 05:10:25;;;;;;;13.40;10.37;;;;;;;15.98;75.30;102336.69;3592604;40;20228;-79
2021/07/22 05:13:01;;;;;;;11.63;8.70;;;;;;;16.13;73.69;102323.22;3580450;40;20245;-79
2021/07/22 05:15:27;;;;;;;11.57;9.27;;;;;;;16.34;71.53;102327.09;3585637;40;20285;-78
2021/07/22 05:17:53;;;;;;;9.90;8.90;;;;;;;16.38;71.48;102336.66;3581118;40;20234;-78
2021/07/22 05:20:18;;;;;;;11.93;9.53;;;;;;;16.53;71.58;102326.63;3571884;40;20230;-78
2021/07/22 05:22:44;;;;;;;11.13;8.80;;;;;;;16.76;69.21;102327.94;3581606;40;20244;-78
2021/07/22 05:25:09;;;;;;;9.33;7.17;;;;;;;16.59;69.52;102331.06;3591336;40;20286;-79
2021/07/22 05:27:35;;;;;;;10.43;8.57;;;;;;;16.93;67.82;102331.72;3581718;40;20234;-79
2021/07/22 05:30:00;;;;;;;8.97;6.67;;;;;;;16.64;68.98;102329.44;3591280;40;20232;-78
2021/07/22 05:32:25;;;;;;;6.80;5.87;;;;;;;16.59;69.84;102331.06;3591202;40;20240;-78
2021/07/22 05:34:51;;;;;;;8.00;5.83;;;;;;;16.55;69.41;102331.84;3591040;40;20291;-79
2021/07/22 05:37:16;;;;;;;5.67;5.10;;;;;;;16.55;70.10;102324.97;3591067;40;20622;-79
2021/07/22 05:39:41;;;;;;;7.33;6.47;;;;;;;16.60;70.31;102331.09;3582256;40;20237;-79
2021/07/22 05:42:07;;;;;;;10.97;7.80;;;;;;;16.72;69.67;102330.47;3581066;40;20226;-77
2021/07/22 05:44:38;;;;;;;10.67;8.27;;;;;;;16.99;68.74;102329.22;3591558;40;20303;-79
2021/07/22 05:47:09;;;;;;;10.63;7.13;;;;;;;17.09;66.84;102320.75;3591040;40;20228;-79
2021/07/22 05:49:37;;;;;;;8.50;6.83;;;;;;;17.27;65.19;102320.19;3571784;40;20214;-78
2021/07/22 05:52:02;;;;;;;12.47;7.47;;;;;;;17.31;65.60;102325.44;3586246;40;20233;-78
2021/07/22 05:54:30;;;;;;;9.83;6.80;;;;;;;17.35;66.26;102324.63;3585044;40;20709;-78
2021/07/22 05:56:56;;;;;;;9.20;8.00;;;;;;;17.71;64.00;102321.75;3579381;40;20229;-78
2021/07/22 05:59:21;;;;;;;9.67;6.93;;;;;;;17.88;63.48;102310.78;3590935;40;20229;-79
2021/07/22 06:01:49;;;;;;;11.73;8.10;;;;;;;18.02;62.23;102317.03;3587182;40;20237;-79
2021/07/22 06:04:20;;;;;;;6.07;5.47;;;;;;;17.73;64.24;102318.34;3577787;40;20249;-79
2021/07/22 06:06:48;;;;;;;8.97;6.97;;;;;;;17.65;64.46;102321.69;3583744;40;20295;-79
2021/07/22 06:09:13;;;;;;;6.60;4.53;;;;;;;17.67;64.80;102315.66;3581827;40;20299;-78
2021/07/22 06:11:44;;;;;;;10.33;6.80;;;;;;;17.90;62.60;102316.84;3591036;40;20583;-78
2021/07/22 06:14:09;;;;;;;8.23;5.63;;;;;;;17.89;62.37;102320.28;3580787;40;20745;-78
2021/07/22 06:16:35;;;;;;;7.90;6.07;;;;;;;18.14;62.64;102317.16;3581851;40;20246;-79
2021/07/22 06:19:00;;;;;;;5.80;4.80;;;;;;;18.08;61.32;102316.19;3582008;40;20241;-79
2021/07/22 06:21:29;;;;;;;5.90;4.83;;;;;;;18.14;62.26;102317.16;3580982;40;20236;-79
2021/07/22 06:23:56;;;;;;;7.60;5.53;;;;;;;18.27;61.97;102318.16;3586519;40;20675;-80
2021/07/22 06:26:24;;;;;;;8.50;5.17;;;;;;;18.44;60.77;102314.97;3583992;40;20480;-79
2021/07/22 06:28:53;;;;;;;6.47;5.33;;;;;;;18.44;59.57;102308.91;3580162;40;20238;-79
2021/07/22 06:31:30;;;;;;;6.67;5.13;;;;;;;18.67;59.69;102310.00;3583312;40;20229;-78
2021/07/22 06:33:58;;;;;;;6.57;5.20;;;;;;;18.81;58.65;102319.69;3591137;40;20671;-79
2021/07/22 06:36:24;;;;;;;8.33;5.37;;;;;;;18.61;59.35;102313.41;3591522;40;20221;-79
2021/07/22 06:38:52;;;;;;;6.53;5.00;;;;;;;18.79;59.50;102316.19;3589903;40;20240;-78
2021/07/22 06:41:20;;;;;;;5.53;4.30;;;;;;;19.11;58.29;102306.94;3590103;40;20225;-79
2021/07/22 06:43:48;;;;;;;6.57;4.80;;;;;;;19.04;58.30;102306.88;3581042;40;20249;-80
2021/07/22 06:46:14;;;;;;;4.40;4.00;;;;;;;19.02;58.63;102306.03;3581309;40;20232;-79
2021/07/22 06:48:40;;;;;;;6.53;4.73;;;;;;;19.10;57.70;102307.81;3571407;40;20218;-79
2021/07/22 06:51:07;;;;;;;6.07;4.33;;;;;;;19.25;56.36;102307.94;3580852;40;20524;-79
2021/07/22 06:53:34;;;;;;;5.03;4.27;;;;;;;19.42;56.72;102305.47;3586654;40;20247;-79
2021/07/22 06:56:04;;;;;;;6.97;4.40;;;;;;;19.51;56.05;102306.41;3581220;40;20276;-79
2021/07/22 06:58:36;;;;;;;5.90;3.60;;;;;;;19.44;55.98;102303.78;3591095;40;20228;-79
2021/07/22 07:01:07;;;;;;;5.43;4.10;;;;;;;19.43;55.62;102309.84;3589999;40;20512;-79
2021/07/22 07:03:32;;;;;;;4.40;4.00;;;;;;;19.67;54.68;102307.38;3589160;40;20241;-79
2021/07/22 07:06:11;;;;;;;7.27;4.47;;;;;;;19.94;52.68;102305.78;3590757;40;20233;-79
2021/07/22 07:08:46;;;;;;;5.97;3.73;;;;;;;19.92;52.81;102306.63;3572979;40;20213;-78
2021/07/22 07:11:11;;;;;;;4.67;4.20;;;;;;;19.86;55.01;102310.06;3586263;40;20664;-79
2021/07/22 07:13:37;;;;;;;4.73;3.37;;;;;;;19.95;53.40;102314.47;3580814;40;20249;-79
2021/07/22 07:16:08;;;;;;;6.43;4.53;;;;;;;20.10;53.27;102314.56;3577713;40;20219;-79
2021/07/22 07:18:39;;;;;;;7.90;4.50;;;;;;;20.38;52.32;102308.59;3583071;40;20291;-78
2021/07/22 07:21:20;;;;;;;6.07;4.20;;;;;;;20.50;52.56;102313.84;3572933;40;20557;-79
2021/07/22 07:23:54;;;;;;;4.73;3.90;;;;;;;20.49;54.41;102309.50;3589495;40;20232;-80
2021/07/22 07:26:21;;;;;;;7.47;4.40;;;;;;;20.69;51.53;102303.44;3592248;40;20326;-79
2021/07/22 07:28:47;;;;;;;6.63;4.57;;;;;;;20.66;51.98;102308.66;3592160;40;20236;-78
2021/07/22 07:31:25;;;;;;;6.70;4.43;;;;;;;20.68;52.20;102313.88;3588390;40;20234;-79
2021/07/22 07:33:53;;;;;;;5.73;3.50;;;;;;;20.63;53.05;102318.22;3584571;40;20242;-79
2021/07/22 07:36:19;;;;;;;8.07;4.33;;;;;;;20.86;50.95;102306.09;3583090;40;20526;-79
2021/07/22 07:38:47;;;;;;;8.67;4.53;;;;;;;21.05;50.52;102306.13;3572789;40;20241;-79
2021/07/22 07:41:15;;;;;;;6.33;4.60;;;;;;;21.35;49.34;102311.31;3586186;40;20456;-79
2021/07/22 07:43:43;;;;;;;5.97;4.30;;;;;;;21.17;49.82;102307.84;3592135;40;20651;-79
2021/07/22 07:46:14;;;;;;;4.77;3.97;;;;;;;21.01;50.87;102311.34;3580492;40;20604;-79
2021/07/22 07:48:44;;;;;;;6.00;4.83;;;;;;;20.95;51.33;102311.31;3592271;40;20257;-79
2021/07/22 07:51:15;;;;;;;7.73;5.10;;;;;;;20.90;50.81;102307.84;3582590;40;20515;-79
2021/07/22 07:53:45;;;;;;;5.17;4.40;;;;;;;20.93;50.88;102313.94;3589818;40;20237;-79
2021/07/22 07:56:26;;;;;;;5.90;5.10;;;;;;;21.05;50.59;102307.88;3591068;40;20309;-79
2021/07/22 07:58:55;;;;;;;6.67;5.03;;;;;;;21.04;51.28;102306.09;3581704;40;20241;-79
2021/07/22 08:01:25;;;;;;;7.33;5.27;;;;;;;21.26;51.90;102307.84;3581631;40;20433;-80
2021/07/22 08:03:50;;;;;;;6.30;4.70;;;;;;;21.24;51.86;102310.44;3581637;40;20244;-80
2021/07/22 08:06:34;;;;;;;9.27;5.60;;;;;;;21.57;49.90;102315.63;3589337;40;20237;-79
2021/07/22 08:09:00;;;;;;;7.67;5.17;;;;;;;21.73;49.47;102309.53;3581243;40;20570;-79
2021/07/22 08:11:25;;;;;;;6.70;5.23;;;;;;;21.69;49.44;102301.75;3581252;40;20218;-79
2021/07/22 08:13:50;;;;;;;5.60;5.00;;;;;;;21.67;49.76;102304.31;3581419;40;20237;-79
2021/07/22 08:16:20;;;;;;;6.37;5.07;;;;;;;21.57;49.26;102306.94;3585012;40;20587;-79
2021/07/22 08:18:55;;;;;;;5.63;5.03;;;;;;;21.37;50.12;102314.78;3583847;40;20230;-79
2021/07/22 08:21:20;;;;;;;5.90;4.70;;;;;;;21.33;50.59;102315.66;3581233;40;20569;-79
2021/07/22 08:23:45;;;;;;;5.30;4.80;;;;;;;21.41;50.31;102308.69;3586682;40;20233;-79
2021/07/22 08:26:18;;;;;;;6.63;5.97;;;;;;;21.68;48.89;102299.94;3591693;40;20228;-80
2021/07/22 08:28:49;;;;;;;7.23;6.10;;;;;;;21.86;48.92;102297.31;3590571;40;20233;-79
2021/07/22 08:31:19;;;;;;;6.10;5.07;;;;;;;21.86;49.86;102292.97;3581716;40;20622;-79
2021/07/22 08:33:44;;;;;;;8.17;6.30;;;;;;;22.03;48.64;102293.75;3590688;40;20295;-79
2021/07/22 08:36:14;;;;;;;7.73;6.57;;;;;;;22.20;48.31;102286.72;3591103;40;20233;-79
2021/07/22 08:38:39;;;;;;;6.68;6.05;;;;;;;22.15;48.97;102285.00;3581960;40;20228;-79
2021/07/22 08:41:06;;;;;;;9.63;7.13;;;;;;;22.38;48.53;102286.63;3589854;40;20230;-79
2021/07/22 08:43:36;;;;;;;7.50;6.70;;;;;;;22.30;48.41;102282.34;3571808;40;20229;-80
2021/07/22 08:46:05;;;;;;;6.97;6.27;;;;;;;22.45;49.27;102282.28;3582694;40;20519;-79
2021/07/22 08:49:01;;;;;;;7.75;6.30;;;;;;;22.51;48.71;102278.78;3572069;40;20420;-79
2021/07/22 08:51:30;;;;;;;10.43;6.83;;;;;;;22.46;49.19;102277.94;3572483;40;20226;-80
2021/07/22 08:54:07;;;;;;;9.17;6.70;;;;;;;22.58;48.03;102270.88;3581534;40;20533;-80
2021/07/22 08:56:41;;;;;;;7.80;7.10;;;;;;;22.49;48.87;102281.38;3575525;40;20249;-79
2021/07/22 08:59:10;;;;;;;6.97;6.30;;;;;;;22.43;49.10;102281.41;3583872;40;20290;-79
2021/07/22 09:01:36;;;;;;;8.13;6.30;;;;;;;22.38;49.13;102284.03;3588462;40;20221;-79
2021/07/22 09:04:07;;;;;;;9.10;7.20;;;;;;;22.33;49.01;102282.31;3498201;40;3774399;-79
2021/07/22 09:06:35;;;;;;;8.30;6.27;;;;;;;22.17;49.26;102278.06;3590757;40;20338;-80
2021/07/22 09:09:16;;;;;;;10.40;7.37;;;;;;;22.27;49.00;102283.22;3591786;40;20229;-79
2021/07/22 09:12:05;;;;;;;8.45;6.97;;;;;;;22.15;48.82;102277.19;3590662;40;20243;-79
2021/07/22 09:14:35;;;;;;;7.23;6.07;;;;;;;21.90;49.40;102283.38;3581581;40;20234;-80
2021/07/22 09:17:01;;;;;;;9.37;7.27;;;;;;;21.84;49.49;102278.22;3581652;40;20230;-77
2021/07/22 09:19:39;;;;;;;7.07;5.90;;;;;;;21.73;50.06;102279.97;3591658;40;20239;-79
2021/07/22 09:22:13;;;;;;;6.90;6.20;;;;;;;21.71;50.35;102280.00;3582117;40;20240;-79
2021/07/22 09:24:49;;;;;;;9.33;6.63;;;;;;;21.69;50.71;102276.50;3582269;40;20244;-79
2021/07/22 09:27:49;;;;;;;9.63;6.83;;;;;;;21.77;49.69;102272.13;3591535;40;20276;-79
2021/07/22 09:30:33;;;;;;;9.30;6.97;;;;;;;21.80;50.01;102274.75;3585478;40;20652;-79
2021/07/22 09:33:06;;;;;;;9.50;7.17;;;;;;;22.05;49.99;102273.75;3581220;40;20568;-79
2021/07/22 09:35:37;;;;;;;10.43;7.20;;;;;;;22.23;48.70;102271.94;3581574;40;20229;-79
2021/07/22 09:38:12;;;;;;;7.10;6.40;;;;;;;22.38;49.17;102269.25;3581334;40;20238;-79
2021/07/22 09:40:40;;;;;;;8.90;6.73;;;;;;;22.62;48.27;102274.34;3582611;40;20609;-80
2021/07/22 09:43:25;;;;;;;8.47;5.97;;;;;;;22.66;48.00;102273.44;3582127;40;20253;-79
2021/07/22 09:45:50;;;;;;;7.30;5.67;;;;;;;22.53;48.73;102264.81;3575088;40;20221;-80
2021/07/22 09:48:16;;;;;;;7.57;6.40;;;;;;;22.66;49.23;102263.88;3580085;40;20275;-79
2021/07/22 09:50:44;;;;;;;7.97;5.97;;;;;;;22.80;48.34;102272.47;3572504;40;20245;-79
2021/07/22 09:53:14;;;;;;;9.37;5.10;;;;;;;22.91;47.41;102269.75;3581728;40;20245;-78
2021/07/22 09:55:41;;;;;;;7.30;5.57;;;;;;;23.04;47.36;102271.38;3581272;40;20539;-79
2021/07/22 09:58:09;;;;;;;6.60;5.60;;;;;;;23.08;46.79;102262.63;3573240;40;20244;-79
2021/07/22 10:00:40;;;;;;;6.53;5.70;;;;;;;23.29;45.93;102265.94;3590789;40;20240;-79
2021/07/22 10:03:13;;;;;;;8.93;6.18;;;;;;;23.70;44.70;102262.88;3579178;40;20252;-79
2021/07/22 10:06:11;;;;;;;9.18;6.10;;;;;;;23.61;46.10;102260.38;3590389;40;20240;-79
2021/07/22 10:08:41;;;;;;;6.38;5.68;;;;;;;23.86;45.45;102259.19;3581901;40;20233;-79
2021/07/22 10:11:09;;;;;;;9.33;5.73;;;;;;;24.03;44.38;102257.28;3581600;40;20229;-79
2021/07/22 10:13:39;;;;;;;7.28;5.15;;;;;;;24.06;45.10;102265.94;3591577;40;20628;-80
2021/07/22 10:16:19;;;;;;;9.23;5.77;;;;;;;24.22;44.47;102253.53;3582155;40;20269;-80
2021/07/22 10:18:52;;;;;;;7.65;6.40;;;;;;;24.25;43.94;102256.06;3590950;40;20225;-80
2021/07/22 10:21:21;;;;;;;7.00;6.30;;;;;;;24.11;44.28;102258.91;3577237;40;20218;-80
2021/07/22 10:24:13;;;;;;;8.95;6.22;;;;;;;23.70;45.61;102258.50;3581237;40;20260;-79
2021/07/22 10:26:43;;;;;;;8.60;5.70;;;;;;;23.29;46.55;102252.00;3582617;40;20241;-79
2021/07/22 10:29:11;;;;;;;6.65;5.35;;;;;;;23.24;46.77;102252.03;3590558;40;20632;-80
2021/07/22 10:31:42;;;;;;;7.10;5.43;;;;;;;23.13;46.44;102259.09;3570807;40;20225;-79
2021/07/22 10:34:19;;;;;;;6.65;5.28;;;;;;;23.00;47.55;102253.97;3583052;40;20643;-79
2021/07/22 10:36:48;;;;;;;7.93;4.97;;;;;;;22.95;47.31;102255.78;3580044;40;20484;-79
2021/07/22 10:39:14;;;;;;;6.27;4.47;;;;;;;22.89;47.92;102245.38;3591093;40;20326;-79
2021/07/22 10:41:41;;;;;;;5.60;4.97;;;;;;;22.87;47.41;102247.13;3585406;40;20234;-79
2021/07/22 10:44:31;;;;;;;10.07;6.20;;;;;;;22.94;47.07;102249.69;3583381;40;20291;-79
2021/07/22 10:47:20;;;;;;;9.07;5.67;;;;;;;22.99;47.22;102250.53;3581399;40;20326;-79
2021/07/22 10:49:45;;;;;;;5.93;5.23;;;;;;;22.72;47.52;102247.25;3584355;40;20258;-80
2021/07/22 10:52:34;;;;;;;8.23;5.17;;;;;;;22.64;48.14;102249.94;3574342;40;20746;-79
2021/07/22 10:54:59;;;;;;;8.17;6.30;;;;;;;22.84;46.66;102258.47;3583113;40;20287;-79
2021/07/22 10:57:36;;;;;;;6.57;5.50;;;;;;;22.59;46.73;102253.44;3589105;40;20229;-79
2021/07/22 11:00:04;;;;;;;6.73;6.00;;;;;;;22.48;48.22;102250.94;3585247;40;20245;-79
2021/07/22 11:02:45;;;;;;;7.53;6.10;;;;;;;22.70;47.63;102249.03;3582091;40;20524;-79
2021/07/22 11:05:40;;;;;;;6.40;4.53;;;;;;;22.72;47.19;102250.75;3588273;40;20359;-79
2021/07/22 11:08:29;;;;;;;6.07;4.73;;;;;;;22.57;47.50;102242.16;3592680;40;20238;-79
2021/07/22 11:11:04;;;;;;;5.87;4.67;;;;;;;22.46;48.23;102244.84;3584002;40;20229;-79
2021/07/22 11:13:38;;;;;;;6.60;5.23;;;;;;;22.51;48.11;102242.22;3581619;40;20260;-79
2021/07/22 11:16:28;;;;;;;7.15;4.95;;;;;;;22.60;48.20;102240.38;3582532;40;20236;-79
2021/07/22 11:18:57;;;;;;;7.63;5.20;;;;;;;22.75;46.95;102236.78;3591553;40;20233;-79
2021/07/22 11:21:49;;;;;;;6.20;4.40;;;;;;;22.76;47.14;102236.78;3583067;40;20231;-79
2021/07/22 11:24:22;;;;;;;6.73;5.17;;;;;;;22.76;47.31;102236.78;3591633;40;20311;-79
2021/07/22 11:26:50;;;;;;;8.13;4.77;;;;;;;22.79;46.74;102238.50;3591370;40;20245;-79